Time;durP1;ratioP1;P1;durP2;ratioP2;P2;SDS_P1;SDS_P2;PMS_P1;PMS_P2;Temp;Humidity;BMP_temperature;BMP_pressure;BME280_temperature;BME280_humidity;BME280_pressure;Samples;Min_cycle;Max_cycle;Signal;HPM_P1;HPM_P2
2022/03/03 00:00:15;;;;;;;17.25;8.52;;;;;;;2.28;55.82;101961.34;5056478;28;20075;-87
2022/03/03 00:02:42;;;;;;;18.33;9.07;;;;;;;2.25;55.16;101958.66;5056328;28;20393;-86
2022/03/03 00:05:08;;;;;;;17.00;8.25;;;;;;;2.27;55.53;101960.47;5054994;28;20480;-87
2022/03/03 00:07:34;;;;;;;15.67;7.50;;;;;;;2.26;55.76;101955.28;5055719;28;20063;-86
2022/03/03 00:09:59;;;;;;;15.60;7.30;;;;;;;2.22;55.85;101955.97;5056220;28;20323;-86
2022/03/03 00:12:27;;;;;;;18.35;8.23;;;;;;;2.20;55.57;101953.38;5054886;28;20067;-86
2022/03/03 00:14:52;;;;;;;16.52;7.45;;;;;;;2.18;55.44;101949.88;5056136;28;20101;-86
2022/03/03 00:17:18;;;;;;;15.15;7.20;;;;;;;2.16;56.33;101957.53;5055168;28;20108;-87
2022/03/03 00:19:44;;;;;;;18.23;8.07;;;;;;;2.13;55.92;101961.66;5055641;28;20028;-86
2022/03/03 00:22:10;;;;;;;19.35;9.30;;;;;;;2.07;56.73;101948.59;5056002;28;20025;-86
2022/03/03 00:24:35;;;;;;;19.95;10.07;;;;;;;2.05;56.20;101950.22;5055858;28;20021;-86
2022/03/03 00:27:01;;;;;;;21.67;11.23;;;;;;;2.01;56.05;101949.25;5055370;28;20466;-86
2022/03/03 00:29:26;;;;;;;20.42;10.73;;;;;;;1.99;56.48;101949.19;5055513;28;20037;-86
2022/03/03 00:31:51;;;;;;;20.00;9.77;;;;;;;1.96;56.92;101943.09;5055333;28;20547;-86
2022/03/03 00:34:17;;;;;;;20.50;10.25;;;;;;;1.90;56.88;101946.31;5054868;28;20029;-85
2022/03/03 00:36:42;;;;;;;19.73;9.98;;;;;;;1.91;56.40;101944.59;5055705;28;20025;-86
2022/03/03 00:39:13;;;;;;;18.38;8.55;;;;;;;1.90;56.94;101943.75;5055432;28;20414;-86
2022/03/03 00:41:38;;;;;;;19.85;9.75;;;;;;;1.85;56.84;101942.69;5054511;28;20025;-86
2022/03/03 00:44:06;;;;;;;19.23;9.38;;;;;;;1.84;57.08;101943.50;5055313;28;20029;-86
2022/03/03 00:46:32;;;;;;;18.25;8.73;;;;;;;1.82;56.31;101932.31;5054935;28;20067;-86
2022/03/03 00:48:57;;;;;;;18.40;9.18;;;;;;;1.78;57.28;101933.88;5054617;28;20043;-86
2022/03/03 00:51:22;;;;;;;19.60;9.85;;;;;;;1.75;57.16;101941.44;5055378;28;20036;-86
2022/03/03 00:53:49;;;;;;;19.60;10.02;;;;;;;1.73;57.19;101931.97;5055364;28;20095;-86
2022/03/03 00:56:15;;;;;;;;;;;;;;;1.76;56.75;101935.50;5054682;28;20167;-86
2022/03/03 00:58:40;;;;;;;18.13;8.40;;;;;;;1.75;56.57;101932.91;5054836;28;20003;-86
2022/03/03 01:01:05;;;;;;;16.08;7.47;;;;;;;1.75;55.79;101926.06;5054686;28;20025;-86
2022/03/03 01:03:34;;;;;;;16.13;7.45;;;;;;;1.77;56.37;101931.28;5055451;28;20163;-86
2022/03/03 01:05:59;;;;;;;14.18;6.68;;;;;;;1.76;57.03;101932.09;5055701;28;20013;-86
2022/03/03 01:08:24;;;;;;;15.10;6.78;;;;;;;1.74;56.25;101933.72;5058052;28;20111;-87
2022/03/03 01:10:50;;;;;;;12.13;5.85;;;;;;;1.68;55.95;101925.00;5057736;28;20035;-86
2022/03/03 01:13:16;;;;;;;12.05;5.75;;;;;;;1.68;56.04;101927.56;5055463;28;20025;-86
2022/03/03 01:15:42;;;;;;;11.43;5.20;;;;;;;1.66;56.26;101938.53;5054728;28;20029;-86
2022/03/03 01:18:08;;;;;;;11.15;5.18;;;;;;;1.61;56.62;101930.66;5054970;28;20055;-87
2022/03/03 01:20:33;;;;;;;10.93;5.38;;;;;;;1.59;56.59;101934.84;5054622;28;20060;-86
2022/03/03 01:23:02;;;;;;;10.50;4.95;;;;;;;1.55;56.63;101933.00;5053819;28;20078;-87
2022/03/03 01:25:30;;;;;;;10.73;5.30;;;;;;;1.52;56.62;101933.72;5054389;28;20033;-86
2022/03/03 01:27:55;;;;;;;11.38;5.07;;;;;;;1.48;56.40;101926.78;5054830;28;20109;-87
2022/03/03 01:30:20;;;;;;;11.13;5.28;;;;;;;1.42;56.52;101934.19;5053568;28;20137;-86
2022/03/03 01:32:48;;;;;;;12.40;5.47;;;;;;;1.38;57.16;101925.53;5054144;28;20037;-86
2022/03/03 01:35:13;;;;;;;11.10;5.10;;;;;;;1.36;56.81;101923.72;5055699;28;20085;-87
2022/03/03 01:37:39;;;;;;;11.68;5.50;;;;;;;1.31;56.84;101918.41;5055347;28;20152;-86
2022/03/03 01:40:05;;;;;;;11.73;5.70;;;;;;;1.30;57.30;101914.13;5056549;28;20450;-86
2022/03/03 01:42:30;;;;;;;10.77;5.43;;;;;;;1.24;57.43;101906.19;5055578;28;20033;-86
2022/03/03 01:44:58;;;;;;;12.10;5.70;;;;;;;1.17;57.41;101905.09;5054103;28;20672;-86
2022/03/03 01:47:26;;;;;;;14.98;6.07;;;;;;;1.15;57.22;101905.81;5054236;28;20036;-86
2022/03/03 01:49:53;;;;;;;13.45;6.10;;;;;;;1.10;57.79;101902.22;5054304;28;20056;-86
2022/03/03 01:52:20;;;;;;;12.90;5.68;;;;;;;1.00;57.63;101896.72;5052489;28;20472;-86
2022/03/03 01:54:46;;;;;;;13.27;5.70;;;;;;;0.95;57.92;101899.91;5054116;28;20045;-86
2022/03/03 01:57:11;;;;;;;13.30;5.95;;;;;;;0.89;58.28;101892.84;5054192;28;20056;-87
2022/03/03 01:59:37;;;;;;;10.88;5.60;;;;;;;0.83;58.33;101890.91;5053610;28;20469;-86
2022/03/03 02:02:05;;;;;;;14.18;6.03;;;;;;;0.76;58.26;101889.78;5053516;28;20072;-86
2022/03/03 02:04:32;;;;;;;13.68;5.90;;;;;;;0.69;58.36;101882.66;5052833;28;20029;-86
2022/03/03 02:06:58;;;;;;;13.32;5.93;;;;;;;0.67;58.64;101876.63;5053435;28;20024;-86
2022/03/03 02:09:23;;;;;;;13.25;6.05;;;;;;;0.63;58.76;101872.19;5053482;28;20029;-86
2022/03/03 02:11:49;;;;;;;12.00;5.70;;;;;;;0.55;58.83;101874.41;5051141;28;20389;-86
2022/03/03 02:14:15;;;;;;;11.15;5.55;;;;;;;0.53;58.49;101877.72;5054073;28;20029;-86
2022/03/03 02:16:40;;;;;;;13.10;5.95;;;;;;;0.51;59.04;101879.34;5053914;28;20021;-87
2022/03/03 02:19:06;;;;;;;11.85;5.70;;;;;;;0.48;58.78;101884.31;5053166;28;20086;-86
2022/03/03 02:21:33;;;;;;;12.82;5.93;;;;;;;0.46;58.90;101871.47;5053265;28;20037;-86
2022/03/03 02:23:59;;;;;;;13.00;5.78;;;;;;;0.43;59.05;101874.78;5053718;28;20366;-86
2022/03/03 02:26:25;;;;;;;12.70;6.13;;;;;;;0.41;59.10;101873.84;5052649;28;20511;-87
2022/03/03 02:28:52;;;;;;;14.32;6.20;;;;;;;0.37;59.14;101865.97;5053325;28;20025;-86
2022/03/03 02:31:17;;;;;;;;;;;;;;;0.35;60.90;101871.00;5053179;28;20036;-86
2022/03/03 02:33:43;;;;;;;12.40;5.70;;;;;;;0.33;59.67;101866.63;5052467;28;19916;-86
2022/03/03 02:36:21;;;;;;;13.63;6.05;;;;;;;0.27;61.53;101868.13;5053110;28;20029;-86
2022/03/03 02:38:48;;;;;;;13.77;5.97;;;;;;;0.24;60.51;101870.56;5053135;28;20396;-85
2022/03/03 02:41:14;;;;;;;11.23;5.22;;;;;;;0.25;60.04;101873.97;5052445;28;20032;-85
2022/03/03 02:43:39;;;;;;;12.07;5.75;;;;;;;0.23;60.48;101878.13;5053079;28;20025;-86
2022/03/03 02:46:06;;;;;;;11.70;5.18;;;;;;;0.21;59.99;101872.97;5052661;28;20442;-86
2022/03/03 02:48:32;;;;;;;11.52;5.30;;;;;;;0.22;59.71;101871.31;5051885;28;20021;-86
2022/03/03 02:50:57;;;;;;;12.52;5.70;;;;;;;0.23;60.18;101873.91;5053115;28;20028;-86
2022/03/03 02:53:22;;;;;;;12.85;5.38;;;;;;;0.22;60.28;101859.38;5052294;28;20033;-86
2022/03/03 02:55:51;;;;;;;11.80;4.95;;;;;;;0.22;60.26;101867.06;5051887;28;20473;-85
2022/03/03 02:58:16;;;;;;;9.93;4.95;;;;;;;0.20;60.25;101858.44;5052792;28;20029;-87
2022/03/03 03:00:46;;;;;;;10.73;5.10;;;;;;;0.17;60.98;101860.00;5052450;28;20527;-86
2022/03/03 03:03:13;;;;;;;8.93;4.60;;;;;;;0.14;60.40;101860.75;5053073;28;20071;-86
2022/03/03 03:05:38;;;;;;;10.53;5.17;;;;;;;0.11;60.10;101864.00;5052767;28;20100;-86
2022/03/03 03:08:04;;;;;;;11.60;5.50;;;;;;;0.11;60.11;101866.56;5051630;28;20385;-86
2022/03/03 03:10:30;;;;;;;11.52;5.13;;;;;;;0.09;61.44;101868.19;5052209;28;20032;-86
2022/03/03 03:12:55;;;;;;;9.82;4.72;;;;;;;0.07;61.11;101857.03;5052723;28;20052;-86
2022/03/03 03:15:21;;;;;;;11.40;4.97;;;;;;;0.07;60.74;101861.25;5051693;28;20074;-86
2022/03/03 03:17:46;;;;;;;10.60;5.13;;;;;;;0.07;60.67;101856.16;5052924;28;20036;-85
2022/03/03 03:20:14;;;;;;;11.82;5.20;;;;;;;0.08;61.43;101857.91;5052461;28;20029;-85
2022/03/03 03:22:40;;;;;;;11.07;5.20;;;;;;;0.08;60.90;101856.25;5051948;28;20031;-86
2022/03/03 03:25:11;;;;;;;12.70;5.30;;;;;;;0.08;60.10;101843.47;5052938;28;20075;-86
2022/03/03 03:27:41;;;;;;;12.60;5.82;;;;;;;0.09;60.61;101840.13;5052782;28;20925;-85
2022/03/03 03:30:09;;;;;;;13.55;5.85;;;;;;;0.10;60.53;101835.88;5051605;28;20040;-86
2022/03/03 03:32:35;;;;;;;13.70;5.95;;;;;;;0.10;60.86;101834.22;5057625;28;20512;-86
2022/03/03 03:35:02;;;;;;;13.75;6.47;;;;;;;0.12;60.99;101839.38;5052595;28;20070;-87
2022/03/03 03:37:27;;;;;;;13.82;6.25;;;;;;;0.08;61.94;101838.38;5051553;28;20032;-86
2022/03/03 03:39:52;;;;;;;14.13;6.38;;;;;;;0.10;61.85;101839.31;5052448;28;20033;-86
2022/03/03 03:42:18;;;;;;;17.38;7.43;;;;;;;0.10;63.24;101836.75;5052273;28;20029;-86
2022/03/03 03:44:43;;;;;;;16.75;7.47;;;;;;;0.09;62.97;101835.00;5052005;28;20025;-86
2022/03/03 03:47:10;;;;;;;18.42;8.18;;;;;;;0.09;62.33;101824.81;5052577;28;20017;-86
2022/03/03 03:49:36;;;;;;;17.70;8.07;;;;;;;0.11;63.12;101824.84;5052345;28;20033;-86
2022/03/03 03:52:01;;;;;;;17.23;7.50;;;;;;;0.11;62.71;101825.72;5051521;28;20071;-86
2022/03/03 03:54:27;;;;;;;17.27;7.78;;;;;;;0.11;61.89;101823.16;5052101;28;20033;-85
2022/03/03 03:56:52;;;;;;;19.35;9.23;;;;;;;0.09;63.04;101816.25;5052013;28;20032;-86
2022/03/03 03:59:18;;;;;;;19.83;9.25;;;;;;;0.09;63.64;101821.38;5052314;28;20469;-85
2022/03/03 04:01:43;;;;;;;20.08;9.27;;;;;;;0.04;62.80;101818.63;5052522;28;20037;-86
2022/03/03 04:04:10;;;;;;;20.42;10.18;;;;;;;0.00;62.37;101811.66;5051534;28;20168;-85
2022/03/03 04:06:36;;;;;;;19.50;10.18;;;;;;;0.02;63.74;101825.31;5057941;28;20044;-85
2022/03/03 04:09:05;;;;;;;20.02;9.60;;;;;;;-0.02;64.14;101829.44;5061068;28;20056;-86
2022/03/03 04:11:30;;;;;;;19.42;9.07;;;;;;;-0.07;63.49;101823.25;5051693;28;20044;-86
2022/03/03 04:13:56;;;;;;;18.70;9.07;;;;;;;-0.04;62.24;101830.19;5053441;28;20033;-86
2022/03/03 04:16:23;;;;;;;17.43;8.40;;;;;;;-0.05;63.77;101825.88;5068059;28;20040;-85
2022/03/03 04:18:48;;;;;;;18.55;8.07;;;;;;;-0.07;64.03;101823.25;5056822;28;20040;-86
2022/03/03 04:21:13;;;;;;;16.77;7.40;;;;;;;-0.05;62.47;101821.63;5052852;28;20025;-86
2022/03/03 04:23:38;;;;;;;14.55;6.68;;;;;;;-0.06;62.12;101814.81;5051770;28;20528;-86
2022/03/03 04:26:04;;;;;;;15.52;7.15;;;;;;;-0.08;61.89;101811.31;5051491;28;20033;-86
2022/03/03 04:28:29;;;;;;;14.38;6.60;;;;;;;-0.07;62.50;101813.06;5052617;28;20061;-86
2022/03/03 04:30:54;;;;;;;13.18;6.07;;;;;;;-0.10;61.92;101812.91;5055779;28;20048;-86
2022/03/03 04:33:19;;;;;;;12.63;6.05;;;;;;;-0.13;61.73;101801.69;5054585;28;20176;-86
2022/03/03 04:35:45;;;;;;;15.07;6.20;;;;;;;-0.14;62.32;101805.91;5055759;28;20028;-86
2022/03/03 04:38:10;;;;;;;16.58;7.03;;;;;;;-0.18;61.50;101797.25;5055753;28;20035;-86
2022/03/03 04:40:35;;;;;;;13.32;6.00;;;;;;;-0.20;62.87;101803.09;5054289;28;20101;-85
2022/03/03 04:43:00;;;;;;;15.18;6.63;;;;;;;-0.28;62.34;101792.56;5055714;28;20511;-86
2022/03/03 04:45:26;;;;;;;13.38;6.13;;;;;;;-0.29;62.92;101788.25;5055079;28;20029;-86
2022/03/03 04:47:51;;;;;;;16.52;7.28;;;;;;;-0.30;62.85;101795.84;5054729;28;20017;-86
2022/03/03 04:50:17;;;;;;;14.88;6.88;;;;;;;-0.33;62.72;101784.69;5054486;28;20098;-86
2022/03/03 04:52:42;;;;;;;14.80;6.68;;;;;;;-0.34;63.48;101779.53;5055527;28;20102;-86
2022/03/03 04:55:08;;;;;;;16.70;6.88;;;;;;;-0.36;63.82;101784.56;5054612;28;20039;-86
2022/03/03 04:57:33;;;;;;;15.18;7.00;;;;;;;-0.37;64.24;101780.25;5055000;28;20021;-85
2022/03/03 04:59:59;;;;;;;16.30;7.20;;;;;;;-0.38;65.32;101788.72;5055302;28;20017;-86
2022/03/03 05:02:24;;;;;;;19.17;8.93;;;;;;;-0.45;65.57;101771.41;5054511;28;20067;-85
2022/03/03 05:04:50;;;;;;;19.45;9.88;;;;;;;-0.40;65.55;101781.81;5054975;28;20025;-86
2022/03/03 05:07:15;;;;;;;21.33;10.63;;;;;;;-0.43;65.91;101777.44;5054020;28;20465;-85
2022/03/03 05:09:41;;;;;;;21.13;10.35;;;;;;;-0.35;64.53;101790.53;5055743;28;20032;-86
2022/03/03 05:12:07;;;;;;;19.10;9.60;;;;;;;-0.34;65.12;101793.16;5053728;28;20132;-86
2022/03/03 05:14:32;;;;;;;22.75;10.88;;;;;;;-0.33;64.21;101781.25;5053898;28;20478;-86
2022/03/03 05:16:57;;;;;;;20.88;10.32;;;;;;;-0.31;65.54;101792.41;5054550;28;20028;-85
2022/03/03 05:19:23;;;;;;;20.58;9.80;;;;;;;-0.35;64.57;101783.75;5054614;28;20051;-85
2022/03/03 05:21:48;;;;;;;18.90;9.00;;;;;;;-0.34;64.00;101793.16;5054123;28;20032;-85
2022/03/03 05:24:13;;;;;;;18.00;8.00;;;;;;;-0.37;64.68;101789.59;5054223;28;20036;-85
2022/03/03 05:26:56;;;;;;;17.85;7.75;;;;;;;-0.38;64.70;101795.50;5054390;28;20025;-85
2022/03/03 05:29:21;;;;;;;17.35;7.50;;;;;;;-0.37;63.78;101792.16;5053786;28;20078;-85
2022/03/03 05:31:47;;;;;;;17.55;7.85;;;;;;;-0.40;64.25;101797.09;5054284;28;20057;-85
2022/03/03 05:34:18;;;;;;;15.75;7.10;;;;;;;-0.42;64.08;101788.50;5054600;28;20033;-86
2022/03/03 05:36:49;;;;;;;15.35;6.75;;;;;;;-0.45;64.54;101799.44;5053663;28;20051;-86
2022/03/03 05:39:17;;;;;;;17.80;7.95;;;;;;;-0.48;64.86;101802.75;5054461;28;20033;-86
2022/03/03 05:41:42;;;;;;;19.63;10.05;;;;;;;-0.52;64.91;101802.53;5053583;28;20556;-86
2022/03/03 05:44:11;;;;;;;18.52;8.70;;;;;;;-0.55;65.64;101808.34;5053479;28;20103;-86
2022/03/03 05:46:36;;;;;;;20.42;8.90;;;;;;;-0.57;64.30;101804.88;5054122;28;20116;-85
2022/03/03 05:49:02;;;;;;;19.55;8.85;;;;;;;-0.56;64.67;101809.16;5053937;28;20064;-86
2022/03/03 05:51:27;;;;;;;19.00;7.97;;;;;;;-0.60;65.91;101807.28;5053004;28;20025;-86
2022/03/03 05:53:52;;;;;;;17.45;7.60;;;;;;;-0.62;64.91;101811.44;5054129;28;20031;-86
2022/03/03 05:56:19;;;;;;;14.98;6.60;;;;;;;-0.65;64.96;101801.06;5054128;28;20452;-86
2022/03/03 05:58:49;;;;;;;15.18;7.10;;;;;;;-0.69;64.33;101810.25;5053450;28;20017;-86
2022/03/03 06:01:15;;;;;;;13.88;5.88;;;;;;;-0.72;64.25;101796.50;5056615;28;20028;-85
2022/03/03 06:03:41;;;;;;;14.52;6.53;;;;;;;-0.74;63.93;101796.44;5053280;28;20032;-86
2022/03/03 06:06:17;;;;;;;14.30;6.20;;;;;;;-0.74;63.77;101793.91;5053966;28;20078;-86
2022/03/03 06:09:25;;;;;;;13.53;6.20;;;;;;;-0.73;63.81;101802.41;5053801;28;20439;-86
2022/03/03 06:12:19;;;;;;;13.70;6.03;;;;;;;-0.75;63.50;101798.91;5039631;28;20584;-87
2022/03/03 06:14:52;;;;;;;11.63;5.60;;;;;;;-0.80;65.99;101798.69;5019796;28;20048;-86
2022/03/03 06:17:21;;;;;;;14.30;6.30;;;;;;;-0.89;67.71;101796.56;5053342;28;20070;-86
2022/03/03 06:19:49;;;;;;;15.65;6.70;;;;;;;-0.97;64.85;101793.69;5052642;28;20025;-86
2022/03/03 06:22:15;;;;;;;12.95;6.05;;;;;;;-0.97;65.17;101792.81;5053643;28;20029;-86
2022/03/03 06:24:58;;;;;;;15.50;6.35;;;;;;;-0.99;66.24;101792.75;5052891;28;20488;-86
2022/03/03 06:27:24;;;;;;;18.10;7.75;;;;;;;-1.07;67.67;101793.16;5053438;28;20056;-86
2022/03/03 06:29:49;;;;;;;17.58;7.82;;;;;;;-1.03;66.01;101800.19;5053450;28;20052;-86
2022/03/03 06:32:20;;;;;;;21.80;10.27;;;;;;;-1.12;68.67;101800.59;5052392;28;20041;-86
2022/03/03 06:34:46;;;;;;;20.73;10.48;;;;;;;-1.12;69.07;101795.50;5053478;28;20028;-86
2022/03/03 06:37:11;;;;;;;20.60;9.77;;;;;;;-1.11;67.99;101797.25;5053283;28;20108;-86
2022/03/03 06:39:37;;;;;;;21.13;10.10;;;;;;;-1.12;68.86;101787.84;5053143;28;20453;-86
2022/03/03 06:42:14;;;;;;;20.13;9.77;;;;;;;-1.14;68.03;101786.91;5053755;28;20024;-86
2022/03/03 06:47:43;;;;;;;23.10;11.73;;;;;;;-0.64;68.01;101800.28;5633527;22;20057;-86
2022/03/03 06:50:08;;;;;;;23.05;12.32;;;;;;;0.02;66.67;101797.25;5056813;28;20031;-87
2022/03/03 06:52:34;;;;;;;22.42;11.75;;;;;;;0.76;64.60;101800.34;5054744;28;20443;-87
2022/03/03 06:55:01;;;;;;;23.50;12.75;;;;;;;1.11;63.06;101799.13;5052360;28;20024;-87
2022/03/03 06:57:29;;;;;;;23.73;13.13;;;;;;;0.97;62.92;101801.13;5053110;28;20040;-86
2022/03/03 07:00:00;;;;;;;25.58;13.85;;;;;;;0.82;62.57;101811.63;5053109;28;20025;-86
2022/03/03 07:02:26;;;;;;;24.83;13.65;;;;;;;1.25;61.89;101808.19;5052983;28;20031;-81
2022/03/03 07:04:52;;;;;;;25.65;14.18;;;;;;;1.81;60.97;101816.25;5052677;28;20025;-81
2022/03/03 07:07:19;;;;;;;26.10;14.50;;;;;;;2.47;58.74;101812.56;5051434;28;20033;-82
2022/03/03 07:09:44;;;;;;;24.48;13.00;;;;;;;2.60;59.25;101808.72;5052783;28;20032;-82
2022/03/03 07:12:10;;;;;;;24.02;13.23;;;;;;;2.60;57.34;101813.84;5052662;28;20033;-85
2022/03/03 07:14:35;;;;;;;25.40;14.48;;;;;;;1.88;58.18;101825.03;5051767;28;20497;-85
2022/03/03 07:17:12;;;;;;;25.27;14.65;;;;;;;1.42;60.27;101828.44;5052975;28;20021;-85
2022/03/03 07:19:37;;;;;;;26.48;14.77;;;;;;;1.01;61.11;101824.34;5052322;28;20033;-85
2022/03/03 07:22:31;;;;;;;25.20;14.52;;;;;;;0.69;62.14;101826.44;5051731;28;20385;-82
2022/03/03 07:25:12;;;;;;;24.42;14.20;;;;;;;0.45;62.61;101818.66;5052677;28;20028;-82
2022/03/03 07:27:43;;;;;;;24.95;14.48;;;;;;;0.38;63.37;101821.75;5052522;28;20021;-82
2022/03/03 07:30:12;;;;;;;23.75;13.40;;;;;;;0.30;63.68;101829.09;5051451;28;20029;-82
2022/03/03 07:32:46;;;;;;;26.30;14.65;;;;;;;0.24;64.03;101831.34;5051895;28;20029;-82
2022/03/03 07:35:14;;;;;;;25.70;13.98;;;;;;;0.27;64.34;101836.59;5051345;28;20067;-82
2022/03/03 07:37:53;;;;;;;25.83;14.30;;;;;;;0.27;63.71;101827.28;5052146;28;20029;-82
2022/03/03 07:40:19;;;;;;;25.98;14.82;;;;;;;0.20;63.60;101817.59;5052019;28;20029;-83
2022/03/03 07:42:45;;;;;;;26.33;15.15;;;;;;;0.32;63.74;101821.47;5051786;28;20074;-83
2022/03/03 07:45:10;;;;;;;26.42;15.00;;;;;;;0.33;63.93;101818.13;5052473;28;20021;-82
2022/03/03 07:47:36;;;;;;;26.08;15.13;;;;;;;0.35;63.27;101816.50;5051676;28;20792;-82
2022/03/03 07:50:17;;;;;;;25.52;14.55;;;;;;;0.41;63.17;101809.97;5052344;28;20065;-86
2022/03/03 07:52:44;;;;;;;26.23;14.32;;;;;;;0.53;62.77;101816.41;5053734;28;20131;-87
2022/03/03 07:55:10;;;;;;;25.08;14.40;;;;;;;0.65;63.09;101829.69;5054372;28;20594;-86
2022/03/03 07:57:40;;;;;;;25.67;14.23;;;;;;;0.75;62.68;101830.94;5051812;28;20064;-86
2022/03/03 08:00:17;;;;;;;27.00;15.05;;;;;;;0.80;62.77;101828.56;5052849;28;20021;-86
2022/03/03 08:02:53;;;;;;;25.58;14.85;;;;;;;0.86;61.88;101821.16;5052984;28;20095;-86
2022/03/03 08:05:31;;;;;;;24.83;14.13;;;;;;;1.01;62.36;101832.00;5055570;28;20044;-86
2022/03/03 08:07:57;;;;;;;24.85;13.70;;;;;;;1.13;62.18;101831.63;5056252;28;20424;-86
2022/03/03 08:10:26;;;;;;;24.20;13.40;;;;;;;1.24;61.71;101839.69;5055150;28;20435;-86
2022/03/03 08:12:56;;;;;;;23.58;13.43;;;;;;;1.35;61.39;101845.22;5056613;28;20385;-86
2022/03/03 08:15:25;;;;;;;25.63;13.63;;;;;;;1.44;61.15;101844.72;5053021;28;20469;-85
2022/03/03 08:17:53;;;;;;;25.75;14.07;;;;;;;1.57;60.74;101849.50;5052239;28;20025;-86
2022/03/03 08:20:22;;;;;;;24.67;13.77;;;;;;;1.68;59.95;101838.00;5055254;28;20032;-86
2022/03/03 08:22:47;;;;;;;24.77;13.80;;;;;;;1.79;60.45;101838.38;5061379;28;20025;-86
2022/03/03 08:25:24;;;;;;;;;;;;;;;;;;;;;
2022/03/03 08:27:52;;;;;;;23.85;12.40;;;;;;;2.00;60.13;101824.59;5039089;28;20048;-86
2022/03/03 08:30:18;;;;;;;24.15;13.63;;;;;;;2.18;58.94;101824.38;5055686;28;20055;-85
2022/03/03 08:32:50;;;;;;;25.52;14.80;;;;;;;2.32;57.51;101824.84;5054297;28;20455;-87
2022/03/03 08:35:19;;;;;;;26.63;15.25;;;;;;;2.43;57.43;101825.22;5053499;28;20470;-83
2022/03/03 08:38:00;;;;;;;25.58;14.00;;;;;;;2.55;57.34;101830.78;5054599;28;20385;-84
2022/03/03 08:40:35;;;;;;;25.95;14.57;;;;;;;2.77;57.52;101827.22;5051852;28;20025;-85
2022/03/03 08:43:04;;;;;;;26.00;14.50;;;;;;;2.86;56.26;101833.50;5056009;28;20025;-83
2022/03/03 08:45:32;;;;;;;25.20;14.45;;;;;;;2.93;56.09;101828.59;5053771;28;20091;-85
2022/03/03 08:48:15;;;;;;;24.02;13.88;;;;;;;3.04;55.57;101828.94;5056080;28;20132;-89
2022/03/03 08:50:42;;;;;;;26.13;14.10;;;;;;;3.17;56.34;101835.31;5054758;28;20183;-87
2022/03/03 08:53:09;;;;;;;24.92;13.15;;;;;;;3.30;56.08;101828.88;5054297;28;20033;-84
2022/03/03 08:55:35;;;;;;;25.65;14.30;;;;;;;3.43;54.50;101832.69;5055292;28;20029;-91
2022/03/03 08:58:01;;;;;;;24.40;13.70;;;;;;;3.53;54.99;101831.28;5056528;28;20116;-88
2022/03/03 09:00:28;;;;;;;25.02;13.52;;;;;;;3.64;55.46;101832.47;5055966;28;20493;-88
2022/03/03 09:02:53;;;;;;;24.23;13.85;;;;;;;3.74;54.70;101830.16;5056005;28;20040;-87
2022/03/03 09:05:19;;;;;;;25.58;14.05;;;;;;;3.82;53.17;101826.09;5055328;28;20028;-88
2022/03/03 09:07:46;;;;;;;25.02;13.48;;;;;;;3.94;53.20;101838.44;5055363;28;20096;-87
2022/03/03 09:10:11;;;;;;;24.35;13.45;;;;;;;4.08;53.73;101826.81;5055547;28;20017;-87
2022/03/03 09:12:37;;;;;;;25.65;13.77;;;;;;;4.24;53.32;101822.09;5054946;28;20036;-87
2022/03/03 09:15:06;;;;;;;23.15;12.95;;;;;;;4.33;53.28;101824.91;5054958;28;20028;-89
2022/03/03 09:17:32;;;;;;;21.42;11.32;;;;;;;4.51;54.08;101824.53;5061440;28;20025;-87
2022/03/03 09:20:06;;;;;;;22.15;12.02;;;;;;;4.66;53.13;101838.63;5059948;28;20366;-87
2022/03/03 09:22:33;;;;;;;22.90;12.27;;;;;;;4.80;51.25;101821.78;5046041;28;20037;-87
2022/03/03 09:27:33;;;;;;;21.67;11.10;;;;;;;5.12;52.96;101820.81;6209112;22;20254;-88
2022/03/03 09:29:59;;;;;;;20.75;11.45;;;;;;;5.24;52.46;101819.41;5342825;22;20049;-89
2022/03/03 09:32:24;;;;;;;21.90;11.80;;;;;;;5.42;51.08;101818.06;5055690;28;20503;-88
2022/03/03 09:34:49;;;;;;;21.45;11.52;;;;;;;5.52;51.47;101820.00;5055457;28;20120;-88
2022/03/03 09:37:16;;;;;;;23.90;12.60;;;;;;;5.64;49.14;101816.81;5055596;28;20048;-88
2022/03/03 09:39:43;;;;;;;23.42;13.30;;;;;;;5.71;48.69;101816.13;5056446;28;20052;-88
2022/03/03 09:42:09;;;;;;;22.35;12.20;;;;;;;5.78;50.55;101805.94;5056222;28;20048;-89
2022/03/03 09:44:35;;;;;;;22.02;11.70;;;;;;;5.98;49.98;101808.91;5054720;28;20545;-89
2022/03/03 09:47:00;;;;;;;22.93;13.03;;;;;;;6.01;47.29;101807.28;5054866;28;20544;-88
2022/03/03 09:49:26;;;;;;;21.95;11.75;;;;;;;6.08;49.52;101813.44;5054032;28;20029;-87
2022/03/03 09:51:51;;;;;;;21.57;12.47;;;;;;;6.20;48.70;101807.63;5054825;28;20485;-91
2022/03/03 09:54:17;;;;;;;21.23;11.40;;;;;;;6.26;49.15;101810.31;5054630;28;20025;-89
2022/03/03 09:56:42;;;;;;;22.23;12.03;;;;;;;6.43;49.69;101808.03;5054403;28;20061;-88
2022/03/03 10:02:41;;;;;;;;;;;;;;;;;;;;;
2022/03/03 10:08:22;;;;;;;23.40;13.10;;;;;;;6.86;45.39;101813.06;5061600;22;20057;-88
2022/03/03 10:10:50;;;;;;;23.92;13.85;;;;;;;6.85;45.00;101808.75;5053384;28;20025;-89
2022/03/03 10:13:17;;;;;;;24.55;13.73;;;;;;;6.78;43.30;101810.34;5040859;28;20025;-88
2022/03/03 10:15:53;;;;;;;23.40;13.18;;;;;;;6.90;44.32;101806.22;5052053;28;20025;-89
2022/03/03 10:18:20;;;;;;;22.38;12.30;;;;;;;7.02;43.84;101803.84;5053198;28;20029;-88
2022/03/03 10:20:54;;;;;;;23.73;13.90;;;;;;;7.13;44.68;101806.56;5054355;28;20108;-89
2022/03/03 10:23:28;;;;;;;23.70;13.63;;;;;;;7.07;43.65;101801.31;5053902;28;20488;-89
2022/03/03 10:25:55;;;;;;;22.95;13.20;;;;;;;7.18;44.93;101798.88;5053135;28;20032;-89
2022/03/03 10:28:21;;;;;;;;;;;;;;;7.35;44.31;101812.00;5054159;28;20556;-89
2022/03/03 10:31:00;;;;;;;21.40;12.15;;;;;;;7.49;44.33;101797.59;5053446;28;20392;-89
2022/03/03 10:33:29;;;;;;;22.08;12.43;;;;;;;7.61;44.04;101790.84;5061497;28;20048;-89
2022/03/03 10:36:10;;;;;;;20.75;11.38;;;;;;;7.77;44.37;101797.91;5054599;28;20078;-89
2022/03/03 10:38:59;;;;;;;21.52;10.95;;;;;;;7.94;44.34;101784.31;5056015;28;20032;-89
2022/03/03 10:41:38;;;;;;;19.92;10.02;;;;;;;8.13;43.95;101785.38;5050306;28;20075;-90
2022/03/03 10:44:06;;;;;;;22.67;12.70;;;;;;;8.21;43.14;101785.47;5046909;28;20029;-89
2022/03/03 10:46:34;;;;;;;23.75;12.48;;;;;;;8.18;40.35;101784.56;5036471;28;20056;-89
2022/03/03 10:49:21;;;;;;;21.48;12.23;;;;;;;8.25;41.50;101787.22;5037821;28;20025;-85
2022/03/03 10:51:47;;;;;;;22.25;12.90;;;;;;;8.25;39.75;101788.09;5033751;28;20036;-84
2022/03/03 10:54:12;;;;;;;22.17;12.30;;;;;;;8.32;42.32;101786.44;5032938;28;20033;-85
2022/03/03 10:56:52;;;;;;;23.10;12.73;;;;;;;8.39;40.18;101782.19;5037130;28;20461;-85
2022/03/03 10:59:22;;;;;;;21.77;11.35;;;;;;;8.53;40.69;101782.31;5051369;28;20033;-85
2022/03/03 11:02:05;;;;;;;20.90;11.48;;;;;;;8.72;40.66;101780.75;5051641;28;20056;-86
2022/03/03 11:04:30;;;;;;;20.73;11.15;;;;;;;8.81;39.44;101776.50;5051207;28;20037;-86
2022/03/03 11:06:55;;;;;;;22.67;13.00;;;;;;;8.70;38.91;101772.09;5052050;28;20625;-86
2022/03/03 11:09:22;;;;;;;22.03;12.33;;;;;;;8.79;40.27;101783.38;5052291;28;20112;-86
2022/03/03 11:12:03;;;;;;;21.45;11.73;;;;;;;8.94;38.55;101777.47;5052775;28;20031;-84
2022/03/03 11:14:30;;;;;;;21.30;12.23;;;;;;;8.77;37.09;101773.88;5046787;28;20021;-86
2022/03/03 11:17:13;;;;;;;20.88;11.75;;;;;;;8.91;38.97;101772.25;5052615;28;20094;-85
2022/03/03 11:19:40;;;;;;;20.98;11.43;;;;;;;9.04;37.59;101773.19;5052642;28;20477;-86
2022/03/03 11:22:06;;;;;;;20.15;11.43;;;;;;;9.18;38.88;101769.81;5051889;28;20104;-86
2022/03/03 11:24:36;;;;;;;21.83;12.23;;;;;;;9.13;35.46;101769.78;5052491;28;20116;-86
2022/03/03 11:27:02;;;;;;;19.92;10.63;;;;;;;9.07;33.89;101768.03;5051733;28;20538;-86
2022/03/03 11:30:05;;;;;;;21.50;11.05;;;;;;;9.12;34.34;101768.91;5051737;28;20026;-86
2022/03/03 11:32:30;;;;;;;19.38;10.20;;;;;;;9.26;36.66;101757.75;5052120;28;20403;-85
2022/03/03 11:35:07;;;;;;;18.10;9.17;;;;;;;9.51;36.24;101758.75;5051654;28;20021;-86
2022/03/03 11:37:39;;;;;;;20.00;9.82;;;;;;;9.70;36.03;101759.66;5050723;28;20020;-85
2022/03/03 11:40:20;;;;;;;20.05;11.05;;;;;;;9.69;33.91;101757.94;5037736;28;20044;-86